Estherville, Estherville Municipal Airport (KEST)

NameEstherville Municipal Airport
CityEstherville
CountryUnited States
ICAOKEST
IATAEST
Altitude402 m
CoordinatesGoogle Map
Live Air TrafficLiveATC.net
METARKEST 171952Z AUTO 30006KT 10SM CLR 09/M04 A3043 RMK AO2 SLP317 T00891044
2018-10-17 19:52:00 Wind: West-Northwest (300°) 3.09 m/s - Visibility: 16093.4 m - Temperature: 9 °C - Dew point: -4 °C - Humidity: 40% - Pressure: 1030.48 hPa

Sorry, no flights used the airport in this database.